sensor_id;sensor_type;location;lat;lon;timestamp;pressure;altitude;pressure_sealevel;temperature
78669;BMP280;67984;45.118;20.724;2023-04-06T00:09:38;100554.44;;;3.13
78669;BMP280;67984;45.118;20.724;2023-04-06T00:19:39;100555.03;;;3.10
78669;BMP280;67984;45.118;20.724;2023-04-06T00:29:40;100550.19;;;3.08
78669;BMP280;67984;45.118;20.724;2023-04-06T00:39:42;100542.59;;;3.12
78669;BMP280;67984;45.118;20.724;2023-04-06T00:49:43;100547.75;;;3.12
78669;BMP280;67984;45.118;20.724;2023-04-06T00:59:44;100545.94;;;3.12
78669;BMP280;67984;45.118;20.724;2023-04-06T01:09:47;100540.31;;;3.10
78669;BMP280;67984;45.118;20.724;2023-04-06T01:19:54;100529.88;;;3.07
78669;BMP280;67984;45.118;20.724;2023-04-06T01:30:01;100531.31;;;2.96
78669;BMP280;67984;45.118;20.724;2023-04-06T01:40:17;100513.72;;;2.89
78669;BMP280;67984;45.118;20.724;2023-04-06T01:50:22;100502.25;;;2.87
78669;BMP280;67984;45.118;20.724;2023-04-06T02:00:23;100503.78;;;2.88
78669;BMP280;67984;45.118;20.724;2023-04-06T02:10:27;100497.91;;;2.79
78669;BMP280;67984;45.118;20.724;2023-04-06T02:20:30;100497.13;;;2.78
78669;BMP280;67984;45.118;20.724;2023-04-06T02:30:30;100500.91;;;2.81
78669;BMP280;67984;45.118;20.724;2023-04-06T02:40:33;100491.25;;;2.78
78669;BMP280;67984;45.118;20.724;2023-04-06T02:50:43;100487.16;;;2.77
78669;BMP280;67984;45.118;20.724;2023-04-06T03:00:45;100485.19;;;2.74
78669;BMP280;67984;45.118;20.724;2023-04-06T03:10:47;100490.50;;;2.69
78669;BMP280;67984;45.118;20.724;2023-04-06T03:20:51;100491.44;;;2.65
78669;BMP280;67984;45.118;20.724;2023-04-06T03:30:54;100489.38;;;2.58
78669;BMP280;67984;45.118;20.724;2023-04-06T03:41:15;100493.16;;;2.52
78669;BMP280;67984;45.118;20.724;2023-04-06T03:51:22;100492.13;;;2.45
78669;BMP280;67984;45.118;20.724;2023-04-06T04:01:23;100486.38;;;2.39
78669;BMP280;67984;45.118;20.724;2023-04-06T04:11:25;100483.38;;;2.37
78669;BMP280;67984;45.118;20.724;2023-04-06T04:21:31;100495.31;;;2.33
78669;BMP280;67984;45.118;20.724;2023-04-06T04:31:36;100494.13;;;2.31
78669;BMP280;67984;45.118;20.724;2023-04-06T04:41:40;100490.03;;;2.30
78669;BMP280;67984;45.118;20.724;2023-04-06T04:51:44;100502.28;;;2.33
78669;BMP280;67984;45.118;20.724;2023-04-06T05:01:56;100498.81;;;2.37
78669;BMP280;67984;45.118;20.724;2023-04-06T05:12:04;100498.16;;;2.57
78669;BMP280;67984;45.118;20.724;2023-04-06T05:22:11;100475.06;;;2.69
78669;BMP280;67984;45.118;20.724;2023-04-06T05:32:17;100477.91;;;2.84
78669;BMP280;67984;45.118;20.724;2023-04-06T05:42:24;100480.66;;;3.00
78669;BMP280;67984;45.118;20.724;2023-04-06T05:52:33;100486.56;;;3.00
78669;BMP280;67984;45.118;20.724;2023-04-06T06:02:34;100473.88;;;2.95
78669;BMP280;67984;45.118;20.724;2023-04-06T06:12:35;100485.91;;;2.83
78669;BMP280;67984;45.118;20.724;2023-04-06T06:22:37;100477.56;;;2.86
78669;BMP280;67984;45.118;20.724;2023-04-06T06:32:38;100483.22;;;3.00
78669;BMP280;67984;45.118;20.724;2023-04-06T06:42:39;100479.31;;;3.23
78669;BMP280;67984;45.118;20.724;2023-04-06T06:52:52;100483.59;;;3.60
78669;BMP280;67984;45.118;20.724;2023-04-06T07:02:54;100491.34;;;3.71
78669;BMP280;67984;45.118;20.724;2023-04-06T07:12:55;100492.44;;;4.03
78669;BMP280;67984;45.118;20.724;2023-04-06T07:22:58;100502.44;;;4.16
78669;BMP280;67984;45.118;20.724;2023-04-06T07:32:58;100493.91;;;4.48
78669;BMP280;67984;45.118;20.724;2023-04-06T07:43:01;100499.94;;;4.76
78669;BMP280;67984;45.118;20.724;2023-04-06T07:53:06;100494.53;;;4.93
78669;BMP280;67984;45.118;20.724;2023-04-06T08:03:10;100499.47;;;5.10
78669;BMP280;67984;45.118;20.724;2023-04-06T08:13:10;100492.88;;;5.24
78669;BMP280;67984;45.118;20.724;2023-04-06T08:23:11;100481.44;;;5.25
78669;BMP280;67984;45.118;20.724;2023-04-06T08:33:14;100482.28;;;5.56
78669;BMP280;67984;45.118;20.724;2023-04-06T08:43:17;100488.69;;;5.74
78669;BMP280;67984;45.118;20.724;2023-04-06T08:53:22;100480.59;;;5.76
78669;BMP280;67984;45.118;20.724;2023-04-06T09:03:23;100482.53;;;5.94
78669;BMP280;67984;45.118;20.724;2023-04-06T09:13:25;100489.88;;;6.38
78669;BMP280;67984;45.118;20.724;2023-04-06T09:23:27;100476.41;;;6.82
78669;BMP280;67984;45.118;20.724;2023-04-06T09:33:28;100471.31;;;6.86
78669;BMP280;67984;45.118;20.724;2023-04-06T09:43:31;100453.50;;;7.22
78669;BMP280;67984;45.118;20.724;2023-04-06T09:53:35;100459.91;;;7.47
78669;BMP280;67984;45.118;20.724;2023-04-06T10:03:45;100456.91;;;7.67
78669;BMP280;67984;45.118;20.724;2023-04-06T10:13:48;100451.16;;;7.77
78669;BMP280;67984;45.118;20.724;2023-04-06T10:23:58;100447.63;;;7.89
78669;BMP280;67984;45.118;20.724;2023-04-06T10:34:02;100447.88;;;8.03
78669;BMP280;67984;45.118;20.724;2023-04-06T10:44:03;100437.25;;;8.40
78669;BMP280;67984;45.118;20.724;2023-04-06T10:54:06;100441.59;;;8.59
78669;BMP280;67984;45.118;20.724;2023-04-06T11:04:07;100434.03;;;8.80
78669;BMP280;67984;45.118;20.724;2023-04-06T11:14:10;100424.78;;;8.82
78669;BMP280;67984;45.118;20.724;2023-04-06T11:34:23;100410.94;;;9.11
78669;BMP280;67984;45.118;20.724;2023-04-06T11:44:40;100398.84;;;8.89
78669;BMP280;67984;45.118;20.724;2023-04-06T11:54:47;100402.81;;;9.16
78669;BMP280;67984;45.118;20.724;2023-04-06T12:04:48;100386.00;;;9.50
78669;BMP280;67984;45.118;20.724;2023-04-06T12:15:14;100380.88;;;9.13
78669;BMP280;67984;45.118;20.724;2023-04-06T12:25:41;100376.59;;;9.35
78669;BMP280;67984;45.118;20.724;2023-04-06T12:35:42;100362.53;;;9.03
78669;BMP280;67984;45.118;20.724;2023-04-06T12:45:43;100369.75;;;8.80
78669;BMP280;67984;45.118;20.724;2023-04-06T12:55:45;100356.72;;;8.77
78669;BMP280;67984;45.118;20.724;2023-04-06T13:05:47;100346.63;;;9.11
78669;BMP280;67984;45.118;20.724;2023-04-06T13:15:48;100343.81;;;9.27
78669;BMP280;67984;45.118;20.724;2023-04-06T13:26:06;100338.00;;;9.00
78669;BMP280;67984;45.118;20.724;2023-04-06T13:36:08;100336.09;;;8.61
78669;BMP280;67984;45.118;20.724;2023-04-06T13:46:09;100334.28;;;8.65
78669;BMP280;67984;45.118;20.724;2023-04-06T13:56:10;100325.91;;;8.79
78669;BMP280;67984;45.118;20.724;2023-04-06T14:06:12;100320.72;;;8.82
78669;BMP280;67984;45.118;20.724;2023-04-06T14:16:15;100317.69;;;8.73
78669;BMP280;67984;45.118;20.724;2023-04-06T14:26:16;100307.06;;;8.52
78669;BMP280;67984;45.118;20.724;2023-04-06T14:36:18;100307.50;;;8.61
78669;BMP280;67984;45.118;20.724;2023-04-06T14:46:21;100300.28;;;8.44
78669;BMP280;67984;45.118;20.724;2023-04-06T14:56:23;100288.22;;;8.29
78669;BMP280;67984;45.118;20.724;2023-04-06T15:06:24;100290.28;;;8.14
78669;BMP280;67984;45.118;20.724;2023-04-06T15:16:26;100289.00;;;8.01
78669;BMP280;67984;45.118;20.724;2023-04-06T15:26:26;100276.78;;;8.05
78669;BMP280;67984;45.118;20.724;2023-04-06T15:36:28;100268.81;;;7.91
78669;BMP280;67984;45.118;20.724;2023-04-06T15:46:30;100272.91;;;7.92
78669;BMP280;67984;45.118;20.724;2023-04-06T15:56:32;100268.34;;;7.82
78669;BMP280;67984;45.118;20.724;2023-04-06T16:06:33;100265.84;;;7.63
78669;BMP280;67984;45.118;20.724;2023-04-06T16:16:34;100264.94;;;7.52
78669;BMP280;67984;45.118;20.724;2023-04-06T16:26:34;100278.50;;;7.42
78669;BMP280;67984;45.118;20.724;2023-04-06T16:36:36;100259.63;;;7.19
78669;BMP280;67984;45.118;20.724;2023-04-06T16:46:41;100276.19;;;7.11
78669;BMP280;67984;45.118;20.724;2023-04-06T16:56:45;100264.78;;;6.93
78669;BMP280;67984;45.118;20.724;2023-04-06T17:06:49;100266.72;;;6.78
78669;BMP280;67984;45.118;20.724;2023-04-06T17:16:49;100262.38;;;6.63
78669;BMP280;67984;45.118;20.724;2023-04-06T17:26:50;100263.25;;;6.51
78669;BMP280;67984;45.118;20.724;2023-04-06T17:36:51;100270.91;;;6.44
78669;BMP280;67984;45.118;20.724;2023-04-06T17:46:52;100289.25;;;6.36
78669;BMP280;67984;45.118;20.724;2023-04-06T17:56:52;100295.31;;;6.24
78669;BMP280;67984;45.118;20.724;2023-04-06T18:06:53;100315.72;;;5.76
78669;BMP280;67984;45.118;20.724;2023-04-06T18:16:54;100343.31;;;5.41
78669;BMP280;67984;45.118;20.724;2023-04-06T18:26:55;100360.06;;;5.17
78669;BMP280;67984;45.118;20.724;2023-04-06T18:36:57;100365.75;;;4.95
78669;BMP280;67984;45.118;20.724;2023-04-06T18:46:59;100373.34;;;4.76
78669;BMP280;67984;45.118;20.724;2023-04-06T18:57:00;100378.88;;;4.50
78669;BMP280;67984;45.118;20.724;2023-04-06T19:07:01;100379.84;;;4.34
78669;BMP280;67984;45.118;20.724;2023-04-06T19:17:03;100376.66;;;4.25
78669;BMP280;67984;45.118;20.724;2023-04-06T19:27:04;100383.72;;;4.16
78669;BMP280;67984;45.118;20.724;2023-04-06T19:37:09;100398.03;;;4.02
78669;BMP280;67984;45.118;20.724;2023-04-06T19:47:13;100401.34;;;3.90
78669;BMP280;67984;45.118;20.724;2023-04-06T19:57:19;100398.00;;;3.78
78669;BMP280;67984;45.118;20.724;2023-04-06T20:07:24;100398.31;;;3.76
78669;BMP280;67984;45.118;20.724;2023-04-06T20:17:24;100403.03;;;3.74
78669;BMP280;67984;45.118;20.724;2023-04-06T20:27:28;100407.31;;;3.70
78669;BMP280;67984;45.118;20.724;2023-04-06T20:37:28;100404.53;;;3.63
78669;BMP280;67984;45.118;20.724;2023-04-06T20:47:30;100411.84;;;3.62
78669;BMP280;67984;45.118;20.724;2023-04-06T20:57:31;100401.06;;;3.60
78669;BMP280;67984;45.118;20.724;2023-04-06T21:07:32;100410.25;;;3.49
78669;BMP280;67984;45.118;20.724;2023-04-06T21:17:32;100422.94;;;3.54
78669;BMP280;67984;45.118;20.724;2023-04-06T21:27:33;100421.06;;;3.63
78669;BMP280;67984;45.118;20.724;2023-04-06T21:37:34;100415.25;;;3.65
78669;BMP280;67984;45.118;20.724;2023-04-06T21:47:35;100410.97;;;3.69
78669;BMP280;67984;45.118;20.724;2023-04-06T21:57:36;100408.63;;;3.76
78669;BMP280;67984;45.118;20.724;2023-04-06T22:07:36;100390.69;;;3.80
78669;BMP280;67984;45.118;20.724;2023-04-06T22:17:37;100377.06;;;3.79
78669;BMP280;67984;45.118;20.724;2023-04-06T22:27:38;100375.75;;;3.85
78669;BMP280;67984;45.118;20.724;2023-04-06T22:37:42;100374.56;;;3.83
78669;BMP280;67984;45.118;20.724;2023-04-06T22:47:42;100362.97;;;3.89
78669;BMP280;67984;45.118;20.724;2023-04-06T22:57:43;100352.84;;;3.96
78669;BMP280;67984;45.118;20.724;2023-04-06T23:07:44;100343.50;;;3.91
78669;BMP280;67984;45.118;20.724;2023-04-06T23:17:44;100341.56;;;3.88
78669;BMP280;67984;45.118;20.724;2023-04-06T23:27:45;100330.50;;;3.88
78669;BMP280;67984;45.118;20.724;2023-04-06T23:37:46;100325.97;;;3.97
78669;BMP280;67984;45.118;20.724;2023-04-06T23:47:47;100322.00;;;3.99
78669;BMP280;67984;45.118;20.724;2023-04-06T23:57:47;100325.69;;;3.98
